createdAt,value
2017-08-16T00:00:13.750Z,0
2017-08-16T00:00:54.197Z,0
2017-08-16T00:01:34.652Z,0
2017-08-16T00:02:15.105Z,0
2017-08-16T00:02:55.564Z,0
2017-08-16T00:03:36.021Z,0
2017-08-16T00:04:16.472Z,0
2017-08-16T00:04:56.929Z,0
2017-08-16T00:05:37.380Z,0
2017-08-16T00:06:17.824Z,0
2017-08-16T00:06:58.276Z,0
2017-08-16T00:07:38.720Z,0
2017-08-16T00:08:19.168Z,0
2017-08-16T00:08:59.625Z,0
2017-08-16T00:09:40.078Z,0
2017-08-16T00:10:20.530Z,0
2017-08-16T00:11:00.988Z,0
2017-08-16T00:11:41.446Z,0
2017-08-16T00:12:21.908Z,0
2017-08-16T00:13:02.354Z,0
2017-08-16T00:13:42.808Z,0
2017-08-16T00:14:23.265Z,0
2017-08-16T00:15:03.718Z,0
2017-08-16T00:15:44.174Z,0
2017-08-16T00:16:24.632Z,0
2017-08-16T00:17:05.103Z,0
2017-08-16T00:17:45.558Z,0
2017-08-16T00:18:26.013Z,0
2017-08-16T00:19:06.456Z,0
2017-08-16T00:19:46.916Z,0
2017-08-16T00:20:27.381Z,0
2017-08-16T00:21:07.821Z,0
2017-08-16T00:21:48.287Z,0
2017-08-16T00:22:28.741Z,0
2017-08-16T00:23:09.195Z,0
2017-08-16T00:23:49.656Z,0
2017-08-16T00:24:30.111Z,0
2017-08-16T00:25:10.552Z,0
2017-08-16T00:25:51.008Z,0
2017-08-16T00:26:31.493Z,0
2017-08-16T00:27:11.946Z,0
2017-08-16T00:27:52.407Z,0
2017-08-16T00:28:32.859Z,0
2017-08-16T00:29:13.320Z,0
2017-08-16T00:29:53.771Z,0
2017-08-16T00:30:34.228Z,0
2017-08-16T00:31:14.685Z,0
2017-08-16T00:31:55.147Z,0
2017-08-16T00:32:35.601Z,0
2017-08-16T00:33:16.053Z,0
2017-08-16T00:33:56.502Z,0
2017-08-16T00:34:36.954Z,0
2017-08-16T00:35:17.401Z,0
2017-08-16T00:35:57.861Z,0
2017-08-16T00:36:38.318Z,0
2017-08-16T00:37:18.795Z,0
2017-08-16T00:37:59.256Z,0
2017-08-16T00:38:39.702Z,0
2017-08-16T00:39:21.113Z,0
2017-08-16T00:40:01.566Z,0
2017-08-16T00:40:42.020Z,0
2017-08-16T00:41:22.504Z,0
2017-08-16T00:42:02.956Z,0
2017-08-16T00:42:43.408Z,0
2017-08-16T00:43:23.852Z,0
2017-08-16T00:44:04.298Z,0
2017-08-16T00:44:44.818Z,0
2017-08-16T00:45:25.195Z,0
2017-08-16T00:46:05.680Z,0
2017-08-16T00:46:46.108Z,0
2017-08-16T00:47:26.566Z,0
2017-08-16T00:48:07.023Z,0
2017-08-16T00:48:47.492Z,0
2017-08-16T00:49:27.945Z,0
2017-08-16T00:50:08.398Z,0
2017-08-16T00:50:48.858Z,0
2017-08-16T00:51:29.305Z,0
2017-08-16T00:52:09.757Z,0
2017-08-16T00:52:50.208Z,0
2017-08-16T00:53:30.661Z,0
2017-08-16T00:54:11.114Z,0
2017-08-16T00:54:51.574Z,0
2017-08-16T00:55:32.022Z,0
2017-08-16T00:56:12.478Z,0
2017-08-16T00:56:52.931Z,0
2017-08-16T00:57:33.386Z,0
2017-08-16T00:58:13.851Z,0
2017-08-16T00:58:54.300Z,0
2017-08-16T00:59:34.758Z,0
2017-08-16T01:00:15.209Z,0
2017-08-16T01:00:55.670Z,0
2017-08-16T01:01:36.137Z,0
2017-08-16T01:02:16.587Z,0
2017-08-16T01:02:57.049Z,0
2017-08-16T01:03:37.503Z,0
2017-08-16T01:04:17.963Z,0
2017-08-16T01:04:58.407Z,0
2017-08-16T01:05:38.855Z,0
2017-08-16T01:06:19.310Z,0
2017-08-16T01:06:59.759Z,0
2017-08-16T01:07:40.208Z,0
2017-08-16T01:08:20.678Z,0
2017-08-16T01:09:01.136Z,0
2017-08-16T01:09:41.586Z,0
2017-08-16T01:10:22.045Z,0
2017-08-16T01:11:02.504Z,0
2017-08-16T01:11:42.960Z,0
2017-08-16T01:12:23.415Z,0
2017-08-16T01:13:03.888Z,0
2017-08-16T01:13:44.340Z,0
2017-08-16T01:14:24.789Z,0
2017-08-16T01:15:05.316Z,0
2017-08-16T01:15:45.775Z,0
2017-08-16T01:16:26.228Z,0
2017-08-16T01:17:06.698Z,0
2017-08-16T01:17:47.146Z,0
2017-08-16T01:18:27.599Z,0
2017-08-16T01:19:08.064Z,0
2017-08-16T01:19:48.517Z,0
2017-08-16T01:20:28.985Z,0
2017-08-16T01:21:09.441Z,0
2017-08-16T01:21:49.906Z,0
2017-08-16T01:22:30.352Z,0
2017-08-16T01:23:10.815Z,0
2017-08-16T01:23:51.269Z,0
2017-08-16T01:24:31.723Z,0
2017-08-16T01:25:12.174Z,0
2017-08-16T01:25:52.622Z,0
2017-08-16T01:26:33.093Z,0
2017-08-16T01:27:13.547Z,0
2017-08-16T01:27:54.007Z,0
2017-08-16T01:28:34.447Z,0
2017-08-16T01:29:14.914Z,0
2017-08-16T01:29:55.372Z,0
2017-08-16T01:30:35.823Z,0
2017-08-16T01:31:16.287Z,0
2017-08-16T01:31:56.751Z,0
2017-08-16T01:32:37.214Z,0
2017-08-16T01:33:17.662Z,0
2017-08-16T01:33:58.128Z,0
2017-08-16T01:34:38.581Z,0
2017-08-16T01:35:19.039Z,0
2017-08-16T01:35:59.496Z,0
2017-08-16T01:36:39.953Z,0
2017-08-16T01:37:20.430Z,0
2017-08-16T01:38:00.885Z,0
2017-08-16T01:38:41.335Z,0
2017-08-16T01:39:21.798Z,0
2017-08-16T01:40:02.246Z,0
2017-08-16T01:40:42.699Z,0
2017-08-16T01:41:23.153Z,0
2017-08-16T01:42:03.609Z,0
2017-08-16T01:42:44.065Z,0
2017-08-16T01:43:24.522Z,0
2017-08-16T01:44:04.977Z,0
2017-08-16T01:44:45.438Z,0
2017-08-16T01:45:25.893Z,0
2017-08-16T01:46:06.347Z,0
2017-08-16T01:46:46.803Z,0
2017-08-16T01:47:27.259Z,0
2017-08-16T01:48:07.710Z,0
2017-08-16T01:48:48.156Z,0
2017-08-16T01:49:28.599Z,0
2017-08-16T01:50:09.053Z,0
2017-08-16T01:50:49.519Z,0
2017-08-16T01:51:29.955Z,0
2017-08-16T01:52:10.419Z,0
2017-08-16T01:52:50.872Z,0
2017-08-16T01:53:31.331Z,0
2017-08-16T01:54:11.788Z,0
2017-08-16T01:54:52.235Z,0
2017-08-16T01:55:32.693Z,0
2017-08-16T01:56:13.146Z,0
2017-08-16T01:56:53.606Z,0
2017-08-16T01:57:34.067Z,0
2017-08-16T01:58:14.521Z,0
2017-08-16T01:58:54.971Z,0
2017-08-16T01:59:35.431Z,0
2017-08-16T02:00:15.893Z,0
2017-08-16T02:00:56.340Z,0
2017-08-16T02:01:36.795Z,0
2017-08-16T02:02:17.246Z,0
2017-08-16T02:02:57.697Z,0
2017-08-16T02:03:38.160Z,0
2017-08-16T02:04:18.625Z,0
2017-08-16T02:04:59.077Z,0
2017-08-16T02:05:39.541Z,0
2017-08-16T02:06:20.001Z,0
2017-08-16T02:07:00.449Z,0
2017-08-16T02:07:40.901Z,0
2017-08-16T02:08:21.349Z,0
2017-08-16T02:09:01.804Z,0
2017-08-16T02:09:42.260Z,0
2017-08-16T02:10:22.703Z,0
2017-08-16T02:11:03.170Z,0
2017-08-16T02:11:43.625Z,0
2017-08-16T02:12:24.073Z,0
2017-08-16T02:13:04.533Z,0
2017-08-16T02:13:45.066Z,0
2017-08-16T02:14:25.449Z,0
2017-08-16T02:15:05.907Z,0
2017-08-16T02:15:46.375Z,0
2017-08-16T02:16:26.826Z,0
2017-08-16T02:17:07.277Z,0
2017-08-16T02:17:47.727Z,0
2017-08-16T02:18:28.192Z,0
2017-08-16T02:19:08.642Z,0
2017-08-16T02:19:49.101Z,0
2017-08-16T02:20:29.555Z,0
2017-08-16T02:21:10.004Z,0
2017-08-16T02:21:50.468Z,0
2017-08-16T02:22:30.923Z,0
2017-08-16T02:23:11.378Z,0
2017-08-16T02:23:51.843Z,0
2017-08-16T02:24:32.298Z,0
2017-08-16T02:25:12.754Z,0
2017-08-16T02:25:53.216Z,0
2017-08-16T02:26:33.682Z,0
2017-08-16T02:27:14.140Z,0
2017-08-16T02:27:54.604Z,0
2017-08-16T02:28:35.062Z,0
2017-08-16T02:29:15.528Z,0
2017-08-16T02:29:55.987Z,0
2017-08-16T02:30:36.446Z,0
2017-08-16T02:31:16.888Z,0
2017-08-16T02:31:57.342Z,0
2017-08-16T02:32:37.793Z,0
2017-08-16T02:33:18.250Z,0
2017-08-16T02:33:58.710Z,0
2017-08-16T02:34:39.159Z,0
2017-08-16T02:35:19.627Z,0
2017-08-16T02:36:00.098Z,0
2017-08-16T02:36:40.552Z,0
2017-08-16T02:37:21.012Z,0
2017-08-16T02:38:01.474Z,0
2017-08-16T02:38:41.922Z,0
2017-08-16T02:39:22.376Z,0
2017-08-16T02:40:02.829Z,0
2017-08-16T02:40:43.297Z,0
2017-08-16T02:41:23.742Z,0
2017-08-16T02:42:04.203Z,0
2017-08-16T02:42:44.642Z,0
2017-08-16T02:43:25.095Z,0
2017-08-16T02:44:05.554Z,0
2017-08-16T02:44:46.013Z,0
2017-08-16T02:45:26.476Z,0
2017-08-16T02:46:06.933Z,0
2017-08-16T02:46:47.405Z,0
2017-08-16T02:47:27.898Z,0
2017-08-16T02:48:08.363Z,0
2017-08-16T02:48:48.809Z,0
2017-08-16T02:49:29.270Z,0
2017-08-16T02:50:09.708Z,0
2017-08-16T02:50:50.193Z,0
2017-08-16T02:51:30.645Z,0
2017-08-16T02:52:11.102Z,0
2017-08-16T02:52:51.526Z,0
2017-08-16T02:53:31.993Z,0
2017-08-16T02:54:12.446Z,0
2017-08-16T02:54:52.904Z,0
2017-08-16T02:55:33.360Z,0
2017-08-16T02:56:13.813Z,0
2017-08-16T02:56:54.265Z,0
2017-08-16T02:57:34.723Z,0
2017-08-16T02:58:15.174Z,0
2017-08-16T02:58:55.632Z,0
2017-08-16T02:59:36.099Z,0
2017-08-16T03:00:16.548Z,0
2017-08-16T03:00:57.006Z,0
2017-08-16T03:01:37.471Z,0
2017-08-16T03:02:17.931Z,0
2017-08-16T03:02:58.388Z,0
2017-08-16T03:03:38.843Z,0
2017-08-16T03:04:19.308Z,0
2017-08-16T03:04:59.765Z,0
2017-08-16T03:05:40.221Z,0
2017-08-16T03:06:20.692Z,0
2017-08-16T03:07:01.135Z,0
2017-08-16T03:07:41.593Z,0
2017-08-16T03:08:22.050Z,0
2017-08-16T03:09:02.503Z,0
2017-08-16T03:09:42.960Z,0
2017-08-16T03:10:23.413Z,0
2017-08-16T03:11:03.888Z,0
2017-08-16T03:11:44.339Z,0
2017-08-16T03:12:24.792Z,0
2017-08-16T03:13:05.320Z,0
2017-08-16T03:13:45.770Z,0
2017-08-16T03:14:26.234Z,0
2017-08-16T03:15:06.685Z,0
2017-08-16T03:15:47.137Z,0
2017-08-16T03:16:27.597Z,0
2017-08-16T03:17:08.055Z,0
2017-08-16T03:17:48.513Z,0
2017-08-16T03:18:28.975Z,0
2017-08-16T03:19:09.428Z,0
2017-08-16T03:19:49.899Z,0
2017-08-16T03:20:30.361Z,0
2017-08-16T03:21:10.804Z,0
2017-08-16T03:21:51.263Z,0
2017-08-16T03:22:31.717Z,0
2017-08-16T03:23:12.169Z,0
2017-08-16T03:23:52.630Z,0
2017-08-16T03:24:33.079Z,0
2017-08-16T03:25:13.544Z,0
2017-08-16T03:25:54.003Z,0
2017-08-16T03:26:34.475Z,0
2017-08-16T03:27:14.926Z,0
2017-08-16T03:27:55.376Z,0
2017-08-16T03:28:35.843Z,0
2017-08-16T03:29:16.300Z,0
2017-08-16T03:29:56.755Z,0
2017-08-16T03:30:37.208Z,0
2017-08-16T03:31:17.665Z,0
2017-08-16T03:31:58.128Z,0
2017-08-16T03:32:38.582Z,0
2017-08-16T03:33:19.043Z,0
2017-08-16T03:33:59.500Z,0
2017-08-16T03:34:39.957Z,0
2017-08-16T03:35:20.475Z,0
2017-08-16T03:36:00.918Z,0
2017-08-16T03:36:41.386Z,0
2017-08-16T03:37:21.844Z,0
2017-08-16T03:38:02.299Z,0
2017-08-16T03:38:42.754Z,0
2017-08-16T03:39:23.215Z,0
2017-08-16T03:40:03.664Z,0
2017-08-16T03:40:44.123Z,0
2017-08-16T03:41:24.576Z,0
2017-08-16T03:42:05.036Z,0
2017-08-16T03:42:45.489Z,0
2017-08-16T03:43:25.949Z,0
2017-08-16T03:44:06.396Z,0
2017-08-16T03:44:46.853Z,0
2017-08-16T03:45:27.308Z,0
2017-08-16T03:46:07.756Z,0
2017-08-16T03:46:48.204Z,0
2017-08-16T03:47:28.660Z,0
2017-08-16T03:48:09.114Z,0
2017-08-16T03:48:49.568Z,4
2017-08-16T03:49:30.022Z,4
2017-08-16T03:50:10.470Z,4
2017-08-16T03:50:50.933Z,4
2017-08-16T03:51:31.391Z,4
2017-08-16T03:52:11.850Z,4
2017-08-16T03:52:52.305Z,0
2017-08-16T03:53:32.762Z,0
2017-08-16T03:54:13.217Z,0
2017-08-16T03:54:53.673Z,0
2017-08-16T03:55:34.130Z,0
2017-08-16T03:56:14.588Z,0
2017-08-16T03:56:55.027Z,0
2017-08-16T03:57:35.517Z,0
2017-08-16T03:58:15.973Z,0
2017-08-16T03:58:56.427Z,0
2017-08-16T03:59:36.895Z,0
2017-08-16T04:00:17.361Z,0
2017-08-16T04:00:57.816Z,4
2017-08-16T04:01:38.279Z,4
2017-08-16T04:02:18.725Z,4
2017-08-16T04:02:59.172Z,4
2017-08-16T04:03:39.623Z,4
2017-08-16T04:04:20.075Z,4
2017-08-16T04:05:00.538Z,4
2017-08-16T04:05:40.979Z,4
2017-08-16T04:06:21.430Z,4
2017-08-16T04:07:01.871Z,4
2017-08-16T04:07:42.320Z,4
2017-08-16T04:08:22.781Z,4
2017-08-16T04:09:03.233Z,8
2017-08-16T04:09:43.673Z,8
2017-08-16T04:10:24.152Z,8
2017-08-16T04:11:04.612Z,4
2017-08-16T04:11:45.200Z,8
2017-08-16T04:12:25.588Z,8
2017-08-16T04:13:06.048Z,8
2017-08-16T04:13:46.499Z,8
2017-08-16T04:14:26.954Z,12
2017-08-16T04:15:07.409Z,12
2017-08-16T04:15:47.872Z,8
2017-08-16T04:16:28.316Z,12
2017-08-16T04:17:08.799Z,12
2017-08-16T04:17:49.241Z,12
2017-08-16T04:18:29.692Z,16
2017-08-16T04:19:10.148Z,12
2017-08-16T04:19:50.611Z,16
2017-08-16T04:20:31.057Z,16
2017-08-16T04:21:11.500Z,20
2017-08-16T04:21:51.952Z,16
2017-08-16T04:22:32.406Z,20
2017-08-16T04:23:12.868Z,20
2017-08-16T04:23:53.321Z,24
2017-08-16T04:24:33.782Z,20
2017-08-16T04:25:14.237Z,24
2017-08-16T04:25:54.695Z,20
2017-08-16T04:26:35.154Z,24
2017-08-16T04:27:15.616Z,28
2017-08-16T04:27:56.063Z,24
2017-08-16T04:28:36.517Z,28
2017-08-16T04:29:16.973Z,28
2017-08-16T04:29:57.431Z,28
2017-08-16T04:30:37.889Z,32
2017-08-16T04:31:18.338Z,32
2017-08-16T04:31:58.801Z,32
2017-08-16T04:32:39.260Z,32
2017-08-16T04:33:19.714Z,36
2017-08-16T04:34:00.166Z,36
2017-08-16T04:34:40.620Z,36
2017-08-16T04:35:21.071Z,40
2017-08-16T04:36:01.540Z,36
2017-08-16T04:36:41.999Z,40
2017-08-16T04:37:22.453Z,40
2017-08-16T04:38:02.912Z,40
2017-08-16T04:38:43.363Z,40
2017-08-16T04:39:23.826Z,44
2017-08-16T04:40:04.271Z,44
2017-08-16T04:40:44.718Z,44
2017-08-16T04:41:25.173Z,48
2017-08-16T04:42:05.638Z,48
2017-08-16T04:42:46.131Z,48
2017-08-16T04:43:26.534Z,48
2017-08-16T04:44:06.965Z,52
2017-08-16T04:44:47.427Z,48
2017-08-16T04:45:27.883Z,52
2017-08-16T04:46:08.336Z,56
2017-08-16T04:46:48.786Z,52
2017-08-16T04:47:29.246Z,56
2017-08-16T04:48:09.697Z,56
2017-08-16T04:48:50.143Z,60
2017-08-16T04:49:30.606Z,60
2017-08-16T04:50:11.059Z,60
2017-08-16T04:50:51.511Z,64
2017-08-16T04:51:31.963Z,64
2017-08-16T04:52:12.428Z,68
2017-08-16T04:52:52.878Z,68
2017-08-16T04:53:33.338Z,72
2017-08-16T04:54:13.783Z,72
2017-08-16T04:54:54.267Z,76
2017-08-16T04:55:34.718Z,80
2017-08-16T04:56:15.181Z,80
2017-08-16T04:56:55.686Z,80
2017-08-16T04:57:36.138Z,88
2017-08-16T04:58:16.591Z,88
2017-08-16T04:58:57.052Z,92
2017-08-16T04:59:37.507Z,96
2017-08-16T05:00:17.966Z,96
2017-08-16T05:00:58.417Z,100
2017-08-16T05:01:38.874Z,104
2017-08-16T05:02:19.342Z,108
2017-08-16T05:02:59.804Z,112
2017-08-16T05:03:40.260Z,116
2017-08-16T05:04:20.722Z,116
2017-08-16T05:05:01.173Z,124
2017-08-16T05:05:41.618Z,132
2017-08-16T05:06:22.057Z,136
2017-08-16T05:07:02.510Z,144
2017-08-16T05:07:42.967Z,152
2017-08-16T05:08:23.432Z,160
2017-08-16T05:09:03.883Z,164
2017-08-16T05:09:44.337Z,172
2017-08-16T05:10:24.799Z,184
2017-08-16T05:11:05.249Z,188
2017-08-16T05:11:45.716Z,196
2017-08-16T05:12:26.151Z,208
2017-08-16T05:13:06.601Z,216
2017-08-16T05:13:47.043Z,220
2017-08-16T05:14:27.485Z,224
2017-08-16T05:15:07.929Z,232
2017-08-16T05:15:48.380Z,240
2017-08-16T05:16:28.825Z,248
2017-08-16T05:17:09.285Z,252
2017-08-16T05:17:49.745Z,256
2017-08-16T05:18:30.203Z,260
2017-08-16T05:19:10.659Z,264
2017-08-16T05:19:51.105Z,264
2017-08-16T05:20:31.564Z,268
2017-08-16T05:21:12.021Z,272
2017-08-16T05:21:52.476Z,272
2017-08-16T05:22:32.927Z,276
2017-08-16T05:23:13.376Z,284
2017-08-16T05:23:53.823Z,288
2017-08-16T05:24:34.283Z,288
2017-08-16T05:25:14.740Z,292
2017-08-16T05:25:55.200Z,296
2017-08-16T05:26:35.668Z,296
2017-08-16T05:27:16.124Z,292
2017-08-16T05:27:56.577Z,272
2017-08-16T05:28:37.036Z,272
2017-08-16T05:29:17.487Z,276
2017-08-16T05:29:57.946Z,280
2017-08-16T05:30:38.406Z,284
2017-08-16T05:31:18.860Z,284
2017-08-16T05:31:59.319Z,288
2017-08-16T05:32:39.783Z,292
2017-08-16T05:33:20.237Z,292
2017-08-16T05:34:00.709Z,300
2017-08-16T05:34:41.170Z,312
2017-08-16T05:35:21.769Z,320
2017-08-16T05:36:02.223Z,328
2017-08-16T05:36:42.675Z,364
2017-08-16T05:37:23.137Z,356
2017-08-16T05:39:51.119Z,416
2017-08-16T05:40:31.588Z,392
2017-08-16T05:41:12.031Z,468
2017-08-16T05:41:52.482Z,432
2017-08-16T05:42:32.931Z,536
2017-08-16T05:43:13.380Z,536
2017-08-16T05:43:53.837Z,556
2017-08-16T05:44:34.297Z,564
2017-08-16T05:45:14.750Z,568
2017-08-16T05:45:55.202Z,576
2017-08-16T05:46:35.660Z,536
2017-08-16T05:47:16.110Z,480
2017-08-16T05:47:56.579Z,472
2017-08-16T05:48:37.130Z,452
2017-08-16T05:49:17.615Z,616
2017-08-16T05:49:58.070Z,608
2017-08-16T05:50:38.522Z,608
2017-08-16T05:51:18.983Z,536
2017-08-16T05:51:59.449Z,504
2017-08-16T05:52:39.888Z,524
2017-08-16T05:53:20.363Z,472
2017-08-16T05:54:00.819Z,624
2017-08-16T05:54:41.271Z,604
2017-08-16T05:55:21.735Z,624
2017-08-16T05:56:02.185Z,548
2017-08-16T05:56:42.626Z,632
2017-08-16T05:57:23.081Z,624
2017-08-16T05:58:03.541Z,428
2017-08-16T05:58:43.988Z,428
2017-08-16T06:01:17.164Z,616
2017-08-16T06:01:57.600Z,616
2017-08-16T06:02:38.069Z,640
2017-08-16T06:03:18.500Z,648
2017-08-16T06:03:58.960Z,660
2017-08-16T06:04:39.421Z,668
2017-08-16T06:05:19.860Z,672
2017-08-16T06:06:00.317Z,676
2017-08-16T06:06:40.765Z,684
2017-08-16T06:07:21.222Z,688
2017-08-16T06:08:01.671Z,688
2017-08-16T06:08:42.118Z,544
2017-08-16T06:09:22.580Z,696
2017-08-16T06:10:03.020Z,700
2017-08-16T06:10:43.479Z,708
2017-08-16T06:11:23.927Z,712
2017-08-16T06:12:04.378Z,728
2017-08-16T06:12:44.834Z,736
2017-08-16T06:13:25.294Z,744
2017-08-16T06:14:05.750Z,748
2017-08-16T06:14:46.208Z,752
2017-08-16T06:15:26.660Z,760
2017-08-16T06:16:07.112Z,764
2017-08-16T06:16:47.571Z,772
2017-08-16T06:17:28.025Z,780
2017-08-16T06:18:08.487Z,792
2017-08-16T06:18:48.943Z,804
2017-08-16T06:19:29.401Z,816
2017-08-16T06:20:09.880Z,828
2017-08-16T06:20:50.382Z,832
2017-08-16T06:21:30.830Z,840
2017-08-16T06:22:11.286Z,856
2017-08-16T06:22:51.746Z,860
2017-08-16T06:23:32.201Z,868
2017-08-16T06:24:12.651Z,884
2017-08-16T06:24:53.110Z,888
2017-08-16T06:25:33.565Z,900
2017-08-16T06:26:14.017Z,908
2017-08-16T06:26:54.471Z,920
2017-08-16T06:27:34.921Z,932
2017-08-16T06:28:15.372Z,948
2017-08-16T06:28:55.821Z,968
2017-08-16T06:29:36.276Z,976
2017-08-16T06:30:16.720Z,988
2017-08-16T06:30:57.175Z,1000
2017-08-16T06:31:37.632Z,1008
2017-08-16T06:32:18.089Z,1020
2017-08-16T06:32:58.542Z,1028
2017-08-16T06:33:38.994Z,1016
2017-08-16T06:34:19.452Z,1060
2017-08-16T06:34:59.900Z,1084
2017-08-16T06:35:40.361Z,1108
2017-08-16T06:36:20.822Z,1136
2017-08-16T06:37:01.269Z,1156
2017-08-16T06:37:41.714Z,1168
2017-08-16T06:38:22.163Z,1052
2017-08-16T06:39:02.612Z,1212
2017-08-16T06:39:43.077Z,1244
2017-08-16T06:40:23.526Z,1280
2017-08-16T06:41:03.977Z,1320
2017-08-16T06:41:44.431Z,1236
2017-08-16T06:42:24.884Z,1412
2017-08-16T06:43:05.337Z,1096
2017-08-16T06:43:45.795Z,1412
2017-08-16T06:44:26.253Z,1424
2017-08-16T06:45:06.713Z,1488
2017-08-16T06:45:47.184Z,1296
2017-08-16T06:46:27.632Z,1472
2017-08-16T06:47:08.097Z,1140
2017-08-16T06:47:48.562Z,1076
2017-08-16T06:48:29.016Z,1156
2017-08-16T06:49:09.473Z,1112
2017-08-16T06:49:49.919Z,1232
2017-08-16T06:50:30.365Z,1236
2017-08-16T06:51:10.814Z,1576
2017-08-16T06:51:51.269Z,1280
2017-08-16T06:52:31.723Z,1184
2017-08-16T06:53:12.161Z,1220
2017-08-16T06:53:52.609Z,1272
2017-08-16T06:54:33.054Z,1228
2017-08-16T06:55:13.500Z,1364
2017-08-16T06:55:53.953Z,1244
2017-08-16T06:56:34.427Z,1280
2017-08-16T06:57:14.849Z,1216
2017-08-16T06:57:55.298Z,1228
2017-08-16T06:58:35.748Z,1196
2017-08-16T06:59:16.216Z,1288
2017-08-16T06:59:56.649Z,1288
2017-08-16T07:00:37.105Z,1676
2017-08-16T07:01:17.558Z,1240
2017-08-16T07:01:58.011Z,1224
2017-08-16T07:02:38.468Z,1912
2017-08-16T07:03:18.921Z,1288
2017-08-16T07:03:59.375Z,1348
2017-08-16T07:04:39.811Z,1540
2017-08-16T07:05:20.261Z,1860
2017-08-16T07:06:00.721Z,2020
2017-08-16T07:08:18.520Z,1276
2017-08-16T07:08:58.983Z,1244
2017-08-16T07:09:39.388Z,1228
2017-08-16T07:10:19.814Z,1320
2017-08-16T07:11:00.231Z,1180
2017-08-16T07:13:28.643Z,1164
2017-08-16T07:14:09.107Z,1172
2017-08-16T07:14:49.570Z,1184
2017-08-16T07:15:30.028Z,1208
2017-08-16T07:16:10.463Z,1228
2017-08-16T07:16:50.913Z,1268
2017-08-16T07:17:31.359Z,1344
2017-08-16T07:18:11.808Z,1296
2017-08-16T07:18:52.255Z,1336
2017-08-16T07:19:32.703Z,1404
2017-08-16T07:20:13.154Z,1396
2017-08-16T07:20:53.603Z,1456
2017-08-16T07:21:34.054Z,1400
2017-08-16T07:22:14.514Z,1456
2017-08-16T07:22:54.969Z,1800
2017-08-16T07:23:35.421Z,1544
2017-08-16T07:24:15.878Z,1928
2017-08-16T07:24:56.342Z,2184
2017-08-16T07:25:36.797Z,2448
2017-08-16T07:26:17.246Z,2368
2017-08-16T07:26:57.711Z,1728
2017-08-16T07:27:38.165Z,1788
2017-08-16T07:28:18.622Z,1672
2017-08-16T07:28:59.080Z,1436
2017-08-16T07:29:39.534Z,1488
2017-08-16T07:30:19.985Z,1744
2017-08-16T07:31:00.423Z,1492
2017-08-16T07:31:40.878Z,1236
2017-08-16T07:32:21.327Z,1216
2017-08-16T07:33:01.813Z,1212
2017-08-16T07:33:42.243Z,1292
2017-08-16T07:34:22.707Z,1324
2017-08-16T07:36:50.602Z,1264
2017-08-16T07:37:31.062Z,1204
2017-08-16T07:38:11.519Z,1132
2017-08-16T07:38:51.958Z,1048
2017-08-16T07:39:32.402Z,940
2017-08-16T07:40:12.850Z,860
2017-08-16T07:40:53.296Z,804
2017-08-16T07:41:33.800Z,760
2017-08-16T07:42:14.273Z,732
2017-08-16T07:42:54.719Z,696
2017-08-16T07:43:35.173Z,656
2017-08-16T07:44:15.629Z,632
2017-08-16T07:44:56.102Z,612
2017-08-16T07:45:36.559Z,604
2017-08-16T07:46:17.018Z,588
2017-08-16T07:46:57.481Z,588
2017-08-16T07:47:37.940Z,604
2017-08-16T07:48:18.394Z,616
2017-08-16T07:48:58.844Z,620
2017-08-16T07:49:39.300Z,628
2017-08-16T07:50:19.731Z,656
2017-08-16T07:51:00.191Z,672
2017-08-16T07:51:40.649Z,692
2017-08-16T07:52:21.114Z,716
2017-08-16T07:53:01.559Z,756
2017-08-16T07:53:42.028Z,788
2017-08-16T07:56:10.010Z,684
2017-08-16T07:56:50.514Z,632
2017-08-16T07:57:30.972Z,596
2017-08-16T07:58:11.453Z,584
2017-08-16T07:58:51.907Z,600
2017-08-16T08:01:24.994Z,636
2017-08-16T08:02:05.455Z,648
2017-08-16T08:02:45.917Z,664
2017-08-16T08:03:26.370Z,672
2017-08-16T08:04:06.822Z,688
2017-08-16T08:04:47.263Z,712
2017-08-16T08:05:27.695Z,760
2017-08-16T08:06:08.158Z,852
2017-08-16T08:06:48.634Z,968
2017-08-16T08:07:29.063Z,1080
2017-08-16T08:08:09.518Z,1248
2017-08-16T08:08:49.969Z,1352
2017-08-16T08:09:30.438Z,1116
2017-08-16T08:10:10.887Z,1148
2017-08-16T08:12:23.780Z,1440
2017-08-16T08:13:04.235Z,1524
2017-08-16T08:13:44.686Z,1548
2017-08-16T08:14:25.140Z,1640
2017-08-16T08:15:05.635Z,1836
2017-08-16T08:15:46.038Z,1864
2017-08-16T08:16:26.479Z,2032
2017-08-16T08:17:06.938Z,2276
2017-08-16T08:17:47.422Z,3864
2017-08-16T08:18:27.853Z,2460
2017-08-16T08:19:08.308Z,2484
2017-08-16T08:19:48.750Z,2900
2017-08-16T08:20:29.200Z,2668
2017-08-16T08:21:09.653Z,2636
2017-08-16T08:21:50.108Z,2360
2017-08-16T08:22:30.547Z,2688
2017-08-16T08:23:10.995Z,3848
2017-08-16T08:23:51.439Z,3452
2017-08-16T08:24:31.891Z,2016
2017-08-16T08:25:12.368Z,3520
2017-08-16T08:25:52.823Z,3048
2017-08-16T08:26:33.284Z,2280
2017-08-16T08:27:13.855Z,2440
2017-08-16T08:27:54.332Z,1716
2017-08-16T08:28:35.138Z,1612
2017-08-16T08:29:15.622Z,1828
2017-08-16T08:29:56.137Z,1504
2017-08-16T08:30:36.652Z,1532
2017-08-16T08:31:17.098Z,2032
2017-08-16T08:31:57.548Z,1688
2017-08-16T08:32:37.996Z,2912
2017-08-16T08:33:18.438Z,1856
2017-08-16T08:33:58.947Z,1912
2017-08-16T08:34:39.490Z,2876
2017-08-16T08:36:37.965Z,2540
2017-08-16T08:38:55.858Z,2404
2017-08-16T08:39:36.320Z,2116
2017-08-16T08:40:16.769Z,1512
2017-08-16T08:40:57.231Z,1448
2017-08-16T08:41:37.686Z,2316
2017-08-16T08:42:18.128Z,3700
2017-08-16T08:42:58.591Z,2088
2017-08-16T08:43:39.055Z,1776
2017-08-16T08:44:19.532Z,1332
2017-08-16T08:44:59.992Z,1388
2017-08-16T08:45:40.449Z,2156
2017-08-16T08:46:20.902Z,3596
2017-08-16T08:47:01.379Z,2996
2017-08-16T08:47:41.817Z,2532
2017-08-16T08:48:22.259Z,2584
2017-08-16T08:49:02.729Z,2712
2017-08-16T08:49:43.177Z,2560
2017-08-16T08:50:23.627Z,2340
2017-08-16T08:51:04.890Z,2680
2017-08-16T08:51:45.307Z,3228
2017-08-16T08:52:25.755Z,3680
2017-08-16T08:53:06.330Z,3160
2017-08-16T08:53:46.782Z,2220
2017-08-16T08:54:27.226Z,1844
2017-08-16T08:55:07.713Z,2916
2017-08-16T08:55:48.153Z,4164
2017-08-16T08:56:28.592Z,4128
2017-08-16T08:57:09.011Z,4016
2017-08-16T08:57:49.455Z,3636
2017-08-16T08:58:29.843Z,3196
2017-08-16T08:59:10.313Z,3052
2017-08-16T08:59:50.878Z,2608
2017-08-16T09:00:31.289Z,2808
2017-08-16T09:01:11.741Z,3016
2017-08-16T09:01:52.217Z,3428
2017-08-16T09:02:32.661Z,3660
2017-08-16T09:03:13.190Z,3480
2017-08-16T09:03:53.672Z,3344
2017-08-16T09:04:34.169Z,3768
2017-08-16T09:05:14.630Z,4144
2017-08-16T09:05:55.163Z,4108
2017-08-16T09:06:35.601Z,3664
2017-08-16T09:07:16.016Z,3496
2017-08-16T09:07:56.459Z,3380
2017-08-16T09:08:36.949Z,3568
2017-08-16T09:09:17.565Z,3252
2017-08-16T09:09:58.230Z,3652
2017-08-16T09:10:38.884Z,3904
2017-08-16T09:11:19.365Z,3424
2017-08-16T09:11:59.802Z,3736
2017-08-16T09:12:40.228Z,4184
2017-08-16T09:13:20.639Z,4556
2017-08-16T09:14:01.088Z,4328
2017-08-16T09:14:41.515Z,4356
2017-08-16T09:15:21.926Z,4036
2017-08-16T09:16:02.339Z,4388
2017-08-16T09:16:42.795Z,4056
2017-08-16T09:17:23.266Z,4404
2017-08-16T09:18:03.710Z,4348
2017-08-16T09:18:44.272Z,4296
2017-08-16T09:19:24.728Z,4288
2017-08-16T09:20:05.182Z,4272
2017-08-16T09:20:45.647Z,4300
2017-08-16T09:21:26.101Z,4356
2017-08-16T09:22:06.678Z,4404
2017-08-16T09:22:47.128Z,4372
2017-08-16T09:23:27.888Z,4360
2017-08-16T09:24:08.269Z,4348
2017-08-16T09:24:48.704Z,4332
2017-08-16T09:25:29.163Z,4396
2017-08-16T09:26:09.614Z,4416
2017-08-16T09:26:50.063Z,4352
2017-08-16T09:27:30.510Z,4360
2017-08-16T09:28:10.965Z,4280
2017-08-16T09:28:51.426Z,4216
2017-08-16T09:29:31.876Z,4140
2017-08-16T09:31:29.580Z,4192
2017-08-16T09:32:10.046Z,4196
2017-08-16T09:32:50.509Z,4152
2017-08-16T09:33:30.955Z,3748
2017-08-16T09:34:11.405Z,4288
2017-08-16T09:34:51.860Z,4304
2017-08-16T09:35:32.322Z,4280
2017-08-16T09:36:12.774Z,4256
2017-08-16T09:36:53.230Z,3928
2017-08-16T09:37:33.684Z,4224
2017-08-16T09:38:14.187Z,4036
2017-08-16T09:38:54.637Z,4072
2017-08-16T09:39:35.096Z,3844
2017-08-16T09:40:15.540Z,3504
2017-08-16T09:40:55.989Z,4024
2017-08-16T09:41:36.458Z,4404
2017-08-16T09:42:16.921Z,4264
2017-08-16T09:42:57.371Z,4276
2017-08-16T09:43:37.822Z,4236
2017-08-16T09:44:18.264Z,4192
2017-08-16T09:44:58.719Z,4196
2017-08-16T09:45:39.174Z,4208
2017-08-16T09:46:19.641Z,4196
2017-08-16T09:47:00.065Z,4028
2017-08-16T09:47:40.523Z,4024
2017-08-16T09:49:54.346Z,4176
2017-08-16T09:50:34.801Z,4244